Аэропорт: Кадала. Чита

ICAO: UIAA

METAR:
2022-06-26 11:00:00
UIAA 261100Z 31001MPS 9999 NSC 26/09 Q1004 R29/CLRD70 NOSIG RMK QFE695/0927
METAR:
2022-06-26 08:00:00
TAF UIAA 260800Z 2609/2709 22003G08MPS 9999 SCT040CB TEMPO 2609/2615 28005G10MPS